Terminal Aerodrome Forecast
Issued by NWS

Home | Current Version | Previous Version | Graphics & Text | Print | Product List | Glossary On
Versions: 1 2 3 4 5 6 7 8 9 10 11 12 13 14 15 16 17 18 19 20 21
000
FTUS43 KGRB 241125
TAFRHI
TAF
KRHI 241125Z 2412/2512 28007KT P6SM SCT025 BKN035
      TEMPO 2412/2416 BKN025
     FM241600 29010G16KT P6SM -SHRA BKN025
     FM242300 28006KT P6SM SCT025 BKN045
      TEMPO 2423/2503 -SHRA BKN025
     FM250900 28004KT P6SM BKN010=

USA.gov is the U.S. government's official web portal to all federal, state and local government web resources and services.